createdAt,value
2023-05-15T00:01:58.163Z,12.35
2023-05-15T00:02:35.302Z,12.35
2023-05-15T00:04:26.913Z,12.59
2023-05-15T00:06:55.548Z,12.37
2023-05-15T00:07:35.127Z,12.37
2023-05-15T00:09:21.968Z,12.71
2023-05-15T00:11:48.372Z,12.74
2023-05-15T00:12:35.142Z,12.74
2023-05-15T00:14:14.753Z,12.78
2023-05-15T00:16:41.384Z,12.72
2023-05-15T00:17:35.177Z,12.72
2023-05-15T00:19:07.913Z,12.25
2023-05-15T00:21:34.332Z,12.62
2023-05-15T00:22:35.138Z,12.62
2023-05-15T00:24:00.910Z,12.60
2023-05-15T00:26:27.340Z,12.56
2023-05-15T00:27:35.245Z,12.56
2023-05-15T00:28:53.805Z,12.52
2023-05-15T00:31:20.673Z,12.34
2023-05-15T00:32:35.277Z,12.34
2023-05-15T00:33:47.528Z,12.48
2023-05-15T00:36:14.005Z,12.46
2023-05-15T00:37:35.134Z,12.46
2023-05-15T00:38:40.350Z,12.26
2023-05-15T00:41:07.800Z,11.83
2023-05-15T00:42:35.181Z,11.83
2023-05-15T00:43:35.020Z,12.49
2023-05-15T00:46:02.324Z,12.63
2023-05-15T00:47:35.201Z,12.63
2023-05-15T00:48:29.294Z,12.59
2023-05-15T00:50:57.770Z,12.50
2023-05-15T00:52:35.122Z,12.50
2023-05-15T00:53:24.303Z,12.86
2023-05-15T00:55:52.307Z,12.87
2023-05-15T00:57:35.142Z,12.87
2023-05-15T00:58:21.241Z,12.77
2023-05-15T01:00:49.663Z,12.33
2023-05-15T01:02:35.246Z,12.33
2023-05-15T01:03:17.120Z,12.99
2023-05-15T01:05:44.229Z,12.90
2023-05-15T01:07:35.140Z,12.90
2023-05-15T01:08:18.924Z,13.14
2023-05-15T01:10:47.430Z,13.10
2023-05-15T01:12:35.170Z,13.10
2023-05-15T01:13:15.369Z,13.09
2023-05-15T01:15:42.427Z,13.15
2023-05-15T01:17:35.140Z,13.15
2023-05-15T01:18:08.970Z,13.02
2023-05-15T01:20:46.096Z,13.14
2023-05-15T01:22:35.161Z,13.14
2023-05-15T01:23:26.211Z,12.93
2023-05-15T01:26:52.011Z,13.22
2023-05-15T01:27:35.150Z,13.22
2023-05-15T01:29:30.832Z,13.24
2023-05-15T01:32:02.403Z,13.27
2023-05-15T01:32:35.172Z,13.27
2023-05-15T01:34:38.486Z,13.24
2023-05-15T01:37:07.237Z,13.25
2023-05-15T01:37:35.141Z,13.25
2023-05-15T01:39:36.008Z,13.26
2023-05-15T01:42:10.708Z,13.27
2023-05-15T01:42:35.164Z,13.27
2023-05-15T01:44:42.338Z,13.20
2023-05-15T01:47:19.798Z,12.87
2023-05-15T01:47:35.187Z,12.87
2023-05-15T01:49:48.457Z,13.10
2023-05-15T01:52:22.785Z,13.12
2023-05-15T01:52:35.156Z,13.12
2023-05-15T01:54:50.033Z,12.80
2023-05-15T01:57:18.766Z,12.89
2023-05-15T01:57:35.135Z,12.89
2023-05-15T01:59:46.041Z,12.59
2023-05-15T02:02:13.943Z,12.87
2023-05-15T02:02:35.338Z,12.87
2023-05-15T02:04:41.452Z,13.05
2023-05-15T02:07:08.068Z,12.63
2023-05-15T02:07:35.136Z,12.63
2023-05-15T02:09:35.144Z,12.77
2023-05-15T02:12:02.361Z,12.45
2023-05-15T02:12:35.140Z,12.45
2023-05-15T02:14:29.627Z,12.93
2023-05-15T02:16:56.116Z,12.43
2023-05-15T02:17:35.150Z,12.43
2023-05-15T02:19:22.554Z,13.00
2023-05-15T02:21:48.992Z,12.93
2023-05-15T02:22:35.157Z,12.93
2023-05-15T02:24:15.494Z,13.02
2023-05-15T02:27:00.942Z,12.28
2023-05-15T02:27:35.146Z,12.28
2023-05-15T02:29:34.290Z,12.89
2023-05-15T02:32:16.086Z,12.86
2023-05-15T02:32:35.146Z,12.86
2023-05-15T02:35:13.970Z,12.86
2023-05-15T02:37:35.162Z,12.86
2023-05-15T02:37:43.611Z,12.52
2023-05-15T02:40:11.820Z,12.76
2023-05-15T02:42:35.143Z,12.76
2023-05-15T02:42:41.000Z,12.31
2023-05-15T02:45:09.419Z,12.66
2023-05-15T02:47:36.873Z,12.52
2023-05-15T02:47:37.120Z,12.52
2023-05-15T02:50:04.420Z,12.24
2023-05-15T02:52:31.183Z,12.24
2023-05-15T02:52:35.148Z,12.24
2023-05-15T02:54:57.473Z,12.38
2023-05-15T02:57:23.829Z,12.38
2023-05-15T02:57:35.157Z,12.38
2023-05-15T02:59:50.222Z,12.14
2023-05-15T03:02:16.583Z,12.33
2023-05-15T03:02:35.277Z,12.33
2023-05-15T03:04:46.316Z,11.80
2023-05-15T03:07:14.435Z,12.19
2023-05-15T03:07:35.148Z,12.19
2023-05-15T03:09:41.432Z,12.28
2023-05-15T03:12:08.689Z,11.27
2023-05-15T03:12:35.140Z,11.27
2023-05-15T03:14:35.146Z,12.13
2023-05-15T03:17:01.762Z,12.09
2023-05-15T03:17:35.166Z,12.09
2023-05-15T03:19:28.155Z,12.08
2023-05-15T03:21:57.023Z,11.76
2023-05-15T03:22:35.175Z,11.76
2023-05-15T03:24:23.441Z,12.06
2023-05-15T03:26:49.854Z,12.11
2023-05-15T03:27:35.151Z,12.11
2023-05-15T03:29:16.214Z,11.87
2023-05-15T03:31:42.593Z,12.08
2023-05-15T03:32:35.188Z,12.08
2023-05-15T03:34:08.995Z,12.00
2023-05-15T03:36:35.486Z,11.67
2023-05-15T03:37:35.161Z,11.67
2023-05-15T03:39:01.829Z,12.02
2023-05-15T03:41:28.309Z,12.00
2023-05-15T03:42:35.134Z,12.00
2023-05-15T03:43:54.752Z,12.05
2023-05-15T03:46:21.156Z,11.99
2023-05-15T03:47:35.156Z,11.99
2023-05-15T03:48:47.511Z,11.93
2023-05-15T03:51:13.949Z,12.01
2023-05-15T03:52:35.186Z,12.01
2023-05-15T03:53:40.442Z,11.74
2023-05-15T03:56:07.001Z,11.96
2023-05-15T03:57:35.186Z,11.96
2023-05-15T03:58:33.439Z,11.28
2023-05-15T04:01:00.037Z,11.93
2023-05-15T04:02:35.307Z,11.93
2023-05-15T04:03:26.511Z,11.62
2023-05-15T04:05:53.009Z,11.50
2023-05-15T04:07:35.202Z,11.50
2023-05-15T04:08:19.335Z,11.87
2023-05-15T04:10:45.684Z,11.92
2023-05-15T04:12:35.259Z,11.92
2023-05-15T04:13:12.041Z,11.98
2023-05-15T04:15:38.879Z,11.57
2023-05-15T04:17:35.205Z,11.57
2023-05-15T04:18:05.540Z,11.95
2023-05-15T04:20:33.660Z,11.66
2023-05-15T04:22:35.158Z,11.66
2023-05-15T04:23:00.384Z,11.54
2023-05-15T04:25:27.332Z,11.45
2023-05-15T04:27:35.175Z,11.45
2023-05-15T04:27:53.805Z,11.90
2023-05-15T04:30:20.588Z,12.00
2023-05-15T04:32:35.209Z,12.00
2023-05-15T04:32:47.103Z,11.91
2023-05-15T04:35:15.036Z,11.67
2023-05-15T04:37:35.227Z,11.67
2023-05-15T04:37:42.841Z,12.02
2023-05-15T04:40:09.990Z,12.01
2023-05-15T04:42:35.156Z,12.01
2023-05-15T04:42:38.521Z,12.01
2023-05-15T04:45:05.877Z,11.98
2023-05-15T04:47:32.451Z,11.59
2023-05-15T04:47:35.179Z,11.59
2023-05-15T04:49:58.875Z,12.09
2023-05-15T04:52:25.214Z,12.07
2023-05-15T04:52:35.233Z,12.07
2023-05-15T04:54:52.968Z,12.21
2023-05-15T04:57:19.442Z,11.92
2023-05-15T04:57:35.167Z,11.92
2023-05-15T04:59:45.804Z,12.22
2023-05-15T05:02:12.164Z,12.23
2023-05-15T05:02:35.244Z,12.23
2023-05-15T05:04:38.525Z,12.02
2023-05-15T05:07:05.798Z,12.30
2023-05-15T05:07:35.198Z,12.30
2023-05-15T05:09:32.126Z,11.97
2023-05-15T05:12:02.188Z,11.68
2023-05-15T05:12:35.163Z,11.68
2023-05-15T05:14:28.749Z,11.87
2023-05-15T05:16:55.242Z,12.23
2023-05-15T05:17:35.181Z,12.23
2023-05-15T05:19:21.662Z,12.17
2023-05-15T05:21:48.061Z,11.56
2023-05-15T05:22:35.182Z,11.56
2023-05-15T05:24:14.471Z,10.99
2023-05-15T05:26:44.488Z,12.14
2023-05-15T05:27:35.193Z,12.14
2023-05-15T05:29:11.321Z,11.99
2023-05-15T05:31:37.741Z,11.94
2023-05-15T05:32:35.311Z,11.94
2023-05-15T05:34:04.376Z,12.12
2023-05-15T05:36:30.764Z,11.82
2023-05-15T05:37:35.191Z,11.82
2023-05-15T05:38:57.170Z,12.14
2023-05-15T05:41:23.580Z,11.96
2023-05-15T05:42:35.204Z,11.96
2023-05-15T05:43:49.889Z,12.09
2023-05-15T05:46:16.177Z,11.82
2023-05-15T05:47:35.220Z,11.82
2023-05-15T05:48:42.555Z,11.55
2023-05-15T05:51:08.926Z,11.91
2023-05-15T05:52:35.179Z,11.91
2023-05-15T05:53:36.499Z,11.75
2023-05-15T05:56:03.982Z,12.04
2023-05-15T05:57:35.159Z,12.04
2023-05-15T05:58:30.929Z,12.11
2023-05-15T06:00:57.502Z,12.08
2023-05-15T06:02:35.300Z,12.08
2023-05-15T06:03:24.156Z,11.86
2023-05-15T06:05:50.898Z,12.01
2023-05-15T06:07:35.167Z,12.01
2023-05-15T06:08:17.331Z,12.01
2023-05-15T06:10:43.671Z,12.07
2023-05-15T06:12:35.182Z,12.07
2023-05-15T06:13:10.071Z,12.03
2023-05-15T06:15:36.860Z,12.21
2023-05-15T06:17:35.174Z,12.21
2023-05-15T06:18:03.502Z,11.98
2023-05-15T06:20:30.058Z,12.14
2023-05-15T06:22:35.166Z,12.14
2023-05-15T06:22:56.396Z,12.24
2023-05-15T06:25:22.900Z,12.26
2023-05-15T06:27:35.208Z,12.26
2023-05-15T06:27:49.309Z,12.48
2023-05-15T06:30:15.714Z,12.44
2023-05-15T06:32:35.197Z,12.44
2023-05-15T06:32:42.310Z,12.48
2023-05-15T06:35:12.694Z,11.95
2023-05-15T06:37:35.188Z,11.95
2023-05-15T06:37:39.057Z,12.12
2023-05-15T06:40:06.203Z,12.19
2023-05-15T06:42:35.016Z,11.83
2023-05-15T06:42:35.183Z,11.83
2023-05-15T06:45:01.563Z,12.33
2023-05-15T06:47:27.930Z,12.39
2023-05-15T06:47:35.271Z,12.39
2023-05-15T06:49:54.694Z,12.39
2023-05-15T06:52:21.365Z,12.35
2023-05-15T06:52:35.197Z,12.35
2023-05-15T06:54:48.439Z,11.96
2023-05-15T06:57:15.537Z,12.24
2023-05-15T06:57:35.202Z,12.24
2023-05-15T06:59:41.866Z,12.43
2023-05-15T07:02:08.455Z,12.06
2023-05-15T07:02:35.927Z,12.06
2023-05-15T07:04:35.652Z,12.06
2023-05-15T07:07:02.240Z,12.20
2023-05-15T07:07:35.191Z,12.20
2023-05-15T07:09:28.779Z,11.86
2023-05-15T07:11:55.139Z,12.47
2023-05-15T07:12:35.180Z,12.47
2023-05-15T07:14:21.521Z,12.49
2023-05-15T07:16:48.004Z,12.71
2023-05-15T07:17:35.310Z,12.71
2023-05-15T07:19:18.286Z,12.71
2023-05-15T07:21:44.698Z,12.89
2023-05-15T07:22:44.516Z,12.89
2023-05-15T07:24:11.065Z,12.02
2023-05-15T07:26:43.860Z,12.46
2023-05-15T07:27:35.225Z,12.46
2023-05-15T07:29:16.999Z,12.66
2023-05-15T07:31:44.698Z,12.63
2023-05-15T07:32:35.226Z,12.63
2023-05-15T07:34:11.519Z,12.85
2023-05-15T07:36:37.981Z,12.87
2023-05-15T07:37:35.243Z,12.87
2023-05-15T07:39:04.390Z,13.06
2023-05-15T07:41:33.321Z,13.25
2023-05-15T07:42:35.227Z,13.25
2023-05-15T07:43:59.757Z,13.37
2023-05-15T07:46:26.963Z,13.68
2023-05-15T07:47:35.265Z,13.68
2023-05-15T07:48:53.379Z,13.67
2023-05-15T07:51:19.804Z,13.51
2023-05-15T07:52:35.228Z,13.51
2023-05-15T07:53:46.453Z,13.70
2023-05-15T07:56:15.682Z,14.04
2023-05-15T07:57:35.216Z,14.04
2023-05-15T07:58:42.081Z,12.82
2023-05-15T08:01:08.534Z,14.67
2023-05-15T08:02:35.311Z,14.67
2023-05-15T08:03:35.050Z,14.20
2023-05-15T08:06:01.624Z,15.16
2023-05-15T08:07:35.208Z,15.16
2023-05-15T08:08:28.042Z,15.47
2023-05-15T08:10:54.538Z,14.83
2023-05-15T08:12:35.231Z,14.83
2023-05-15T08:13:20.983Z,15.00
2023-05-15T08:15:47.491Z,14.88
2023-05-15T08:17:35.244Z,14.88
2023-05-15T08:18:13.908Z,15.01
2023-05-15T08:20:40.330Z,14.87
2023-05-15T08:22:35.238Z,14.87
2023-05-15T08:23:07.780Z,15.06
2023-05-15T08:25:34.146Z,13.91
2023-05-15T08:27:35.225Z,13.91
2023-05-15T08:28:02.216Z,15.19
2023-05-15T08:30:28.627Z,15.69
2023-05-15T08:32:35.250Z,15.69
2023-05-15T08:32:55.010Z,16.17
2023-05-15T08:35:21.414Z,15.44
2023-05-15T08:37:35.209Z,15.44
2023-05-15T08:37:47.929Z,15.85
2023-05-15T08:40:14.933Z,16.01
2023-05-15T08:42:35.241Z,16.01
2023-05-15T08:42:47.871Z,16.21
2023-05-15T08:45:17.635Z,15.87
2023-05-15T08:47:35.258Z,15.87
2023-05-15T08:47:44.230Z,16.18
2023-05-15T08:50:13.992Z,15.94
2023-05-15T08:52:35.203Z,15.94
2023-05-15T08:52:42.841Z,16.32
2023-05-15T08:55:13.028Z,15.68
2023-05-15T08:57:35.208Z,15.68
2023-05-15T08:57:40.269Z,16.38
2023-05-15T09:00:09.193Z,17.06
2023-05-15T09:02:39.333Z,16.70
2023-05-15T09:02:39.775Z,16.70
2023-05-15T09:05:07.041Z,16.62
2023-05-15T09:07:34.349Z,16.90
2023-05-15T09:07:35.198Z,16.90
2023-05-15T09:10:03.360Z,16.95
2023-05-15T09:12:33.327Z,17.13
2023-05-15T09:12:35.212Z,17.13
2023-05-15T09:15:12.724Z,17.04
2023-05-15T09:17:35.258Z,17.04
2023-05-15T09:17:40.168Z,17.06
2023-05-15T09:20:07.966Z,17.04
2023-05-15T09:22:36.011Z,17.29
2023-05-15T09:22:36.154Z,17.29
2023-05-15T09:25:04.028Z,17.28
2023-05-15T09:27:30.463Z,17.68
2023-05-15T09:27:35.196Z,17.68
2023-05-15T09:30:08.510Z,17.48
2023-05-15T09:32:37.211Z,17.69
2023-05-15T09:32:37.546Z,17.69
2023-05-15T09:35:04.548Z,17.36
2023-05-15T09:37:34.930Z,18.11
2023-05-15T09:37:35.182Z,18.11
2023-05-15T09:40:11.741Z,18.10
2023-05-15T09:42:35.228Z,18.10
2023-05-15T09:42:38.853Z,18.46
2023-05-15T09:45:06.405Z,18.28
2023-05-15T09:47:33.967Z,18.06
2023-05-15T09:47:35.495Z,18.06
2023-05-15T09:50:00.687Z,18.09
2023-05-15T09:52:28.009Z,18.04
2023-05-15T09:52:35.197Z,18.04
2023-05-15T09:54:54.421Z,18.20
2023-05-15T09:57:22.298Z,18.02
2023-05-15T09:57:35.207Z,18.02
2023-05-15T09:59:49.189Z,18.53
2023-05-15T10:02:32.403Z,18.31
2023-05-15T10:02:35.389Z,18.31
2023-05-15T10:04:59.218Z,18.14
2023-05-15T10:07:29.607Z,17.81
2023-05-15T10:07:35.224Z,17.81
2023-05-15T10:09:56.452Z,17.93
2023-05-15T10:12:23.974Z,18.36
2023-05-15T10:12:35.217Z,18.36
2023-05-15T10:14:51.981Z,17.90
2023-05-15T10:17:20.392Z,18.02
2023-05-15T10:17:35.282Z,18.02
2023-05-15T10:22:26.404Z,18.57
2023-05-15T10:22:35.212Z,18.57
2023-05-15T10:25:01.127Z,17.69
2023-05-15T10:27:28.845Z,18.29
2023-05-15T10:27:35.214Z,18.29
2023-05-15T10:29:57.339Z,19.04
2023-05-15T10:32:25.339Z,19.20
2023-05-15T10:32:35.264Z,19.20
2023-05-15T10:34:54.028Z,18.72
2023-05-15T10:37:22.191Z,18.74
2023-05-15T10:37:35.241Z,18.74
2023-05-15T10:39:49.829Z,18.99
2023-05-15T10:42:16.881Z,18.99
2023-05-15T10:42:35.241Z,18.99
2023-05-15T10:44:43.404Z,19.24
2023-05-15T10:47:10.397Z,19.34
2023-05-15T10:47:35.275Z,19.34
2023-05-15T10:49:36.844Z,18.56
2023-05-15T10:52:03.356Z,19.22
2023-05-15T10:52:35.225Z,19.22
2023-05-15T10:54:29.742Z,19.38
2023-05-15T10:56:56.950Z,19.56
2023-05-15T10:57:35.235Z,19.56
2023-05-15T10:59:31.417Z,19.57
2023-05-15T11:02:04.281Z,19.45
2023-05-15T11:02:35.332Z,19.45
2023-05-15T11:04:32.878Z,19.27
2023-05-15T11:07:12.829Z,19.11
2023-05-15T11:07:35.318Z,19.11
2023-05-15T11:09:40.456Z,18.65
2023-05-15T11:12:11.801Z,19.29
2023-05-15T11:12:35.205Z,19.29
2023-05-15T11:14:40.591Z,19.33
2023-05-15T11:17:11.913Z,19.17
2023-05-15T11:17:35.267Z,19.17
2023-05-15T11:19:59.348Z,19.91
2023-05-15T11:22:29.028Z,19.69
2023-05-15T11:22:35.234Z,19.69
2023-05-15T11:24:58.215Z,19.59
2023-05-15T11:27:26.068Z,19.76
2023-05-15T11:27:35.211Z,19.76
2023-05-15T11:30:22.250Z,19.88
2023-05-15T11:32:35.282Z,19.88
2023-05-15T11:32:51.695Z,19.84
2023-05-15T11:35:21.880Z,19.85
2023-05-15T11:37:35.206Z,19.85
2023-05-15T11:37:50.955Z,19.47
2023-05-15T11:40:23.422Z,20.06
2023-05-15T11:42:35.218Z,20.06
2023-05-15T11:43:16.425Z,19.93
2023-05-15T11:45:43.852Z,19.68
2023-05-15T11:47:35.264Z,19.68
2023-05-15T11:48:14.926Z,19.96
2023-05-15T11:50:42.108Z,20.09
2023-05-15T11:52:35.249Z,20.09
2023-05-15T11:53:09.560Z,20.32
2023-05-15T11:55:40.198Z,20.66
2023-05-15T11:57:35.225Z,20.66
2023-05-15T11:58:12.518Z,20.60
2023-05-15T12:00:39.185Z,20.47
2023-05-15T12:02:35.493Z,20.47
2023-05-15T12:03:05.691Z,20.63
2023-05-15T12:05:32.148Z,20.40
2023-05-15T12:07:35.258Z,20.40
2023-05-15T12:07:58.640Z,20.30
2023-05-15T12:10:25.304Z,20.12
2023-05-15T12:12:35.251Z,20.12
2023-05-15T12:12:51.869Z,20.06
2023-05-15T12:15:18.450Z,20.76
2023-05-15T12:17:35.270Z,20.76
2023-05-15T12:17:46.118Z,21.01
2023-05-15T12:20:17.241Z,21.11
2023-05-15T12:22:35.241Z,21.11
2023-05-15T12:22:43.803Z,20.79
2023-05-15T12:25:15.444Z,20.65
2023-05-15T12:27:35.239Z,20.65
2023-05-15T12:27:42.631Z,20.68
2023-05-15T12:30:10.974Z,18.93
2023-05-15T12:32:35.324Z,18.93
2023-05-15T12:32:38.825Z,21.21
2023-05-15T12:35:05.789Z,21.24
2023-05-15T12:37:35.881Z,21.26
2023-05-15T12:37:36.039Z,21.26
2023-05-15T12:40:10.138Z,20.80
2023-05-15T12:42:35.263Z,20.80
2023-05-15T12:42:43.668Z,21.15
2023-05-15T12:45:18.373Z,21.18
2023-05-15T12:47:35.286Z,21.18
2023-05-15T12:47:46.475Z,21.18
2023-05-15T12:50:18.165Z,21.03
2023-05-15T12:52:35.217Z,21.03
2023-05-15T12:52:55.238Z,21.05
2023-05-15T12:55:25.665Z,21.13
2023-05-15T12:57:35.215Z,21.13
2023-05-15T12:57:53.533Z,20.97
2023-05-15T13:00:22.467Z,21.03
2023-05-15T13:02:35.439Z,21.03
2023-05-15T13:02:56.425Z,21.05
2023-05-15T13:05:23.959Z,21.01
2023-05-15T13:07:35.228Z,21.01
2023-05-15T13:07:52.190Z,20.79
2023-05-15T13:10:23.742Z,20.76
2023-05-15T13:12:35.232Z,20.76
2023-05-15T13:12:52.780Z,21.31
2023-05-15T13:15:26.511Z,21.21
2023-05-15T13:17:35.302Z,21.21
2023-05-15T13:17:56.500Z,20.90
2023-05-15T13:20:24.070Z,21.12
2023-05-15T13:22:35.232Z,21.12
2023-05-15T13:22:51.190Z,20.60
2023-05-15T13:25:19.956Z,20.51
2023-05-15T13:27:35.248Z,20.51
2023-05-15T13:27:47.770Z,21.25
2023-05-15T13:30:15.851Z,21.29
2023-05-15T13:32:35.290Z,21.29
2023-05-15T13:32:42.706Z,21.08
2023-05-15T13:35:10.250Z,21.52
2023-05-15T13:37:35.229Z,21.52
2023-05-15T13:37:37.780Z,20.89
2023-05-15T13:40:09.908Z,21.64
2023-05-15T13:42:41.282Z,20.97
2023-05-15T13:42:41.460Z,20.97
2023-05-15T13:45:15.972Z,21.37
2023-05-15T13:47:35.247Z,21.37
2023-05-15T13:47:43.935Z,21.49
2023-05-15T13:50:15.232Z,21.31
2023-05-15T13:52:35.380Z,21.31
2023-05-15T13:52:43.286Z,21.27
2023-05-15T13:55:10.642Z,21.38
2023-05-15T13:57:35.241Z,21.38
2023-05-15T13:57:37.951Z,20.64
2023-05-15T14:00:11.377Z,20.64
2023-05-15T14:02:35.266Z,20.64
2023-05-15T14:02:38.180Z,20.79
2023-05-15T14:05:05.201Z,20.31
2023-05-15T14:07:32.010Z,20.21
2023-05-15T14:07:35.339Z,20.21
2023-05-15T14:09:58.599Z,20.03
2023-05-15T14:12:25.104Z,19.12
2023-05-15T14:12:35.239Z,19.12
2023-05-15T14:14:51.629Z,19.12
2023-05-15T14:17:21.047Z,19.83
2023-05-15T14:17:35.494Z,19.83
2023-05-15T14:19:47.445Z,19.67
2023-05-15T14:22:13.841Z,19.53
2023-05-15T14:22:35.241Z,19.53
2023-05-15T14:24:40.272Z,19.38
2023-05-15T14:27:06.770Z,19.30
2023-05-15T14:27:35.245Z,19.30
2023-05-15T14:29:33.216Z,19.53
2023-05-15T14:31:59.697Z,19.85
2023-05-15T14:32:35.273Z,19.85
2023-05-15T14:34:26.154Z,20.00
2023-05-15T14:36:54.642Z,19.68
2023-05-15T14:37:35.287Z,19.68
2023-05-15T14:39:21.075Z,19.84
2023-05-15T14:41:47.648Z,19.66
2023-05-15T14:42:35.235Z,19.66
2023-05-15T14:44:14.085Z,19.78
2023-05-15T14:46:42.589Z,19.89
2023-05-15T14:47:35.294Z,19.89
2023-05-15T14:49:09.277Z,19.00
2023-05-15T14:51:35.669Z,19.53
2023-05-15T14:52:35.268Z,19.53
2023-05-15T14:54:02.626Z,19.63
2023-05-15T14:56:28.974Z,19.71
2023-05-15T14:57:35.275Z,19.71
2023-05-15T14:58:55.398Z,20.00
2023-05-15T15:01:21.895Z,20.48
2023-05-15T15:02:35.686Z,20.48
2023-05-15T15:03:48.451Z,20.20
2023-05-15T15:06:14.930Z,19.90
2023-05-15T15:07:35.230Z,19.90
2023-05-15T15:08:41.292Z,19.52
2023-05-15T15:11:10.343Z,19.50
2023-05-15T15:12:35.319Z,19.50
2023-05-15T15:13:36.726Z,19.37
2023-05-15T15:16:03.186Z,19.63
2023-05-15T15:17:35.263Z,19.63
2023-05-15T15:18:29.581Z,19.79
2023-05-15T15:20:55.985Z,19.29
2023-05-15T15:22:35.243Z,19.29
2023-05-15T15:23:22.753Z,19.12
2023-05-15T15:25:49.060Z,19.21
2023-05-15T15:27:35.272Z,19.21
2023-05-15T15:28:15.387Z,18.88
2023-05-15T15:30:41.763Z,18.54
2023-05-15T15:32:35.265Z,18.54
2023-05-15T15:33:08.251Z,18.49
2023-05-15T15:35:34.691Z,18.08
2023-05-15T15:37:35.264Z,18.08
2023-05-15T15:38:01.029Z,18.12
2023-05-15T15:40:29.624Z,17.96
2023-05-15T15:42:35.229Z,17.96
2023-05-15T15:42:56.383Z,17.13
2023-05-15T15:45:22.867Z,17.14
2023-05-15T15:47:35.514Z,17.14
2023-05-15T15:47:49.248Z,17.28
2023-05-15T15:50:15.748Z,17.04
2023-05-15T15:52:35.277Z,17.04
2023-05-15T15:52:42.049Z,17.27
2023-05-15T15:55:09.055Z,17.30
2023-05-15T15:57:36.930Z,16.90
2023-05-15T15:57:37.068Z,16.90
2023-05-15T16:00:03.862Z,17.21
2023-05-15T16:02:30.295Z,17.24
2023-05-15T16:02:35.361Z,17.24
2023-05-15T16:04:56.676Z,16.99
2023-05-15T16:07:25.330Z,16.96
2023-05-15T16:07:35.251Z,16.96
2023-05-15T16:10:00.367Z,16.89
2023-05-15T16:12:35.370Z,16.89
2023-05-15T16:12:37.202Z,16.72
2023-05-15T16:15:20.148Z,16.43
2023-05-15T16:17:35.319Z,16.43
2023-05-15T16:17:51.152Z,16.95
2023-05-15T16:20:17.843Z,17.00
2023-05-15T16:22:35.271Z,17.00
2023-05-15T16:22:44.335Z,17.07
2023-05-15T16:25:10.794Z,17.10
2023-05-15T16:27:35.288Z,17.10
2023-05-15T16:27:37.123Z,17.61
2023-05-15T16:30:03.729Z,17.34
2023-05-15T16:32:30.268Z,17.13
2023-05-15T16:32:35.354Z,17.13
2023-05-15T16:34:57.524Z,17.41
2023-05-15T16:37:23.860Z,17.33
2023-05-15T16:37:35.263Z,17.33
2023-05-15T16:39:50.496Z,17.13
2023-05-15T16:42:16.893Z,16.91
2023-05-15T16:42:35.296Z,16.91
2023-05-15T16:44:43.288Z,17.18
2023-05-15T16:47:09.756Z,17.12
2023-05-15T16:47:35.291Z,17.12
2023-05-15T16:49:36.124Z,15.97
2023-05-15T16:52:02.466Z,17.14
2023-05-15T16:52:35.301Z,17.14
2023-05-15T16:54:28.911Z,17.29
2023-05-15T16:56:55.876Z,17.07
2023-05-15T16:57:35.274Z,17.07
2023-05-15T16:59:22.370Z,17.23
2023-05-15T17:01:48.771Z,16.92
2023-05-15T17:02:35.401Z,16.92
2023-05-15T17:04:15.120Z,16.52
2023-05-15T17:06:41.441Z,17.22
2023-05-15T17:07:35.253Z,17.22
2023-05-15T17:09:07.855Z,17.24
2023-05-15T17:11:34.322Z,16.99
2023-05-15T17:12:35.302Z,16.99
2023-05-15T17:14:00.912Z,16.99
2023-05-15T17:16:27.400Z,16.84
2023-05-15T17:17:35.314Z,16.84
2023-05-15T17:18:53.849Z,15.87
2023-05-15T17:21:20.243Z,16.64
2023-05-15T17:22:35.305Z,16.64
2023-05-15T17:23:46.668Z,16.38
2023-05-15T17:26:12.991Z,16.23
2023-05-15T17:27:35.312Z,16.23
2023-05-15T17:28:39.579Z,16.30
2023-05-15T17:31:10.323Z,15.69
2023-05-15T17:32:35.276Z,15.69
2023-05-15T17:33:36.737Z,16.13
2023-05-15T17:36:03.312Z,15.60
2023-05-15T17:37:35.282Z,15.60
2023-05-15T17:38:29.744Z,16.08
2023-05-15T17:40:56.246Z,16.02
2023-05-15T17:42:35.284Z,16.02
2023-05-15T17:43:22.651Z,15.62
2023-05-15T17:45:49.158Z,15.35
2023-05-15T17:47:35.325Z,15.35
2023-05-15T17:48:15.624Z,15.46
2023-05-15T17:50:42.098Z,15.72
2023-05-15T17:52:35.266Z,15.72
2023-05-15T17:53:08.465Z,15.22
2023-05-15T17:55:35.245Z,15.53
2023-05-15T17:57:35.287Z,15.53
2023-05-15T17:58:01.592Z,15.34
2023-05-15T18:00:27.974Z,15.42
2023-05-15T18:02:35.401Z,15.42
2023-05-15T18:02:54.510Z,15.46
2023-05-15T18:05:20.944Z,15.19
2023-05-15T18:07:35.292Z,15.19
2023-05-15T18:07:48.063Z,14.30
2023-05-15T18:10:14.465Z,14.71
2023-05-15T18:12:35.284Z,14.71
2023-05-15T18:12:40.828Z,14.83
2023-05-15T18:15:07.760Z,15.10
2023-05-15T18:17:34.365Z,15.10
2023-05-15T18:17:35.379Z,15.10
2023-05-15T18:20:01.679Z,15.03
2023-05-15T18:22:28.149Z,14.74
2023-05-15T18:22:35.294Z,14.74
2023-05-15T18:24:54.565Z,14.18
2023-05-15T18:27:20.950Z,14.74
2023-05-15T18:27:35.286Z,14.74
2023-05-15T18:29:47.350Z,14.53
2023-05-15T18:32:13.787Z,13.64
2023-05-15T18:32:35.326Z,13.64
2023-05-15T18:34:40.384Z,14.62
2023-05-15T18:37:06.905Z,14.44
2023-05-15T18:37:35.264Z,14.44
2023-05-15T18:39:33.294Z,14.00
2023-05-15T18:42:00.269Z,13.64
2023-05-15T18:42:35.300Z,13.64
2023-05-15T18:44:26.699Z,14.39
2023-05-15T18:46:53.121Z,14.02
2023-05-15T18:47:35.337Z,14.02
2023-05-15T18:49:19.555Z,14.31
2023-05-15T18:51:46.037Z,13.83
2023-05-15T18:52:35.309Z,13.83
2023-05-15T18:54:12.406Z,13.68
2023-05-15T18:56:40.525Z,13.78
2023-05-15T18:57:35.320Z,13.78
2023-05-15T18:59:08.564Z,14.26
2023-05-15T19:01:34.938Z,13.89
2023-05-15T19:02:35.448Z,13.89
2023-05-15T19:04:01.350Z,13.77
2023-05-15T19:06:27.669Z,13.95
2023-05-15T19:07:35.304Z,13.95
2023-05-15T19:08:54.018Z,13.47
2023-05-15T19:11:21.234Z,12.79
2023-05-15T19:12:35.318Z,12.79
2023-05-15T19:13:47.592Z,13.88
2023-05-15T19:16:14.062Z,13.77
2023-05-15T19:17:37.393Z,13.77
2023-05-15T19:18:40.582Z,13.74
2023-05-15T19:21:07.170Z,13.43
2023-05-15T19:22:35.302Z,13.43
2023-05-15T19:23:33.563Z,13.15
2023-05-15T19:25:59.952Z,13.43
2023-05-15T19:27:35.280Z,13.43
2023-05-15T19:28:26.418Z,12.64
2023-05-15T19:30:52.768Z,13.32
2023-05-15T19:32:35.600Z,13.32
2023-05-15T19:33:19.634Z,13.14
2023-05-15T19:35:46.389Z,13.32
2023-05-15T19:37:35.276Z,13.32
2023-05-15T19:38:12.831Z,13.28
2023-05-15T19:40:42.578Z,13.08
2023-05-15T19:42:35.310Z,13.08
2023-05-15T19:43:11.184Z,13.18
2023-05-15T19:45:41.065Z,13.03
2023-05-15T19:47:35.397Z,13.03
2023-05-15T19:48:07.543Z,13.10
2023-05-15T19:50:33.967Z,13.11
2023-05-15T19:52:35.291Z,13.11
2023-05-15T19:53:00.365Z,12.45
2023-05-15T19:55:26.974Z,12.80
2023-05-15T19:57:35.326Z,12.80
2023-05-15T19:57:56.083Z,13.03
2023-05-15T20:00:22.981Z,12.99
2023-05-15T20:02:35.419Z,12.99
2023-05-15T20:02:49.508Z,11.95
2023-05-15T20:05:16.099Z,12.75
2023-05-15T20:07:35.278Z,12.75
2023-05-15T20:07:43.149Z,12.36
2023-05-15T20:10:10.407Z,11.94
2023-05-15T20:12:35.354Z,11.94
2023-05-15T20:12:36.793Z,12.59
2023-05-15T20:15:03.616Z,12.74
2023-05-15T20:17:30.069Z,12.61
2023-05-15T20:17:35.334Z,12.61
2023-05-15T20:19:56.940Z,12.62
2023-05-15T20:22:23.405Z,11.21
2023-05-15T20:22:35.294Z,11.21
2023-05-15T20:24:49.973Z,12.20
2023-05-15T20:27:16.392Z,12.04
2023-05-15T20:27:35.307Z,12.04
2023-05-15T20:29:42.744Z,12.56
2023-05-15T20:32:09.252Z,12.52
2023-05-15T20:32:35.396Z,12.52
2023-05-15T20:34:36.780Z,12.58
2023-05-15T20:37:03.383Z,12.16
2023-05-15T20:37:35.296Z,12.16
2023-05-15T20:39:29.701Z,12.51
2023-05-15T20:41:56.568Z,12.27
2023-05-15T20:42:35.340Z,12.27
2023-05-15T20:44:22.970Z,12.42
2023-05-15T20:46:49.353Z,12.27
2023-05-15T20:47:35.361Z,12.27
2023-05-15T20:49:15.749Z,12.42
2023-05-15T20:51:44.376Z,12.38
2023-05-15T20:52:35.321Z,12.38
2023-05-15T20:54:10.703Z,12.42
2023-05-15T20:56:37.107Z,12.32
2023-05-15T20:57:35.321Z,12.32
2023-05-15T20:59:04.910Z,12.03
2023-05-15T21:01:31.355Z,11.51
2023-05-15T21:02:35.511Z,11.51
2023-05-15T21:03:57.959Z,12.35
2023-05-15T21:06:24.637Z,12.17
2023-05-15T21:07:35.304Z,12.17
2023-05-15T21:08:51.185Z,11.95
2023-05-15T21:11:17.560Z,12.33
2023-05-15T21:12:35.289Z,12.33
2023-05-15T21:13:43.948Z,11.31
2023-05-15T21:16:10.464Z,12.31
2023-05-15T21:17:35.497Z,12.31
2023-05-15T21:18:38.890Z,12.34